Decoded Metar for LEMD (MADRID in SPAIN) (IATA:MAD) | Meteo·Mobile Aviation Weather
aviador You're here:

LEMD Decoded Metar

MADRID in SPAIN
Report Time2019-02-17 05:00:00
UTC Time2019-02-17 05:36:04
Flight Rules vfr VFR
Wind330° at 04 kt
W.Decomp.*RWY 32: 3.9 kt HW 0.8 kt RCW
RWY 36: 3.5 kt HW 1.9 kt LCW
W.Rank330° ranks 14
Current wind is below 330° avg. (4.6)
Visibility9999 m
Phenomena:N/A
Clouds:N/A
Expected CloudBase > 800 ft AGL from Temp-Dew spread
CeilingNone
Temp-1°C (ISA -12)
Dew Point-3°C (86% RH)
AAT-4.8°C
QNH1025 hPa
Density Alt89 ft
Elevation1,909 ft
Report Wrong Elevation
Raw Report
LEMD 170500Z 33004KT 300V010 CAVOK M01/M03 Q1025 NOSIG=

Extra information for LEMD:More info

Metar Taf Metar & Taf Last 4 Metars F.Rules Stats Wind Profile Meteogram Temp Stats Airport Information Weather charts Add Link Nearby VenuesMetar ALERT Operation Metar Decoded Social comments